Historique des mesures à Cassis (13260), France
Quotidien Résumé Fevrier 12, 2017 Unités:  US    Métrique   Métrique/US
« Précédent (Jour)
Suivant (Jour) »
Quotidien Hebdomadaire Mensuel Annuel Période au choix
  Maximum: Minimum: Moyenne:
Température: 32 °F 52.9 °F 55.2 °F
Point de rosée: 32 °F 42.3 °F 44.4 °F
Humidité: Humidity % 62 % 64 %
Vitesse du vent: WindSpeedKMH mph 0.0 mph 7 mph
Rafales: WindSpeedGustKMH mph - -
Vent:- - ESE
Pression: 0 in 30 in -
Précipitations: 0 in    
Historical Graphs
 
 
Mesures pour : Fevrier 12, 2017
Heure Temperature Point de rosée Pression Vent Vitesse du vent Rafales Humidité Pluie (par heure) Conditions
32 °F 32 °F 0 in Calm     Humidity % 0 in SoftwareType W/m2
00:11 52.9 °F 42.3 °F 30 in ESE 1.8 mph 7.2 mph 67 % 0 in open2300-1.11 W/m2
01:10 52.9 °F 42.6 °F 30 in SSE 3.2 mph 7.6 mph 68 % 0 in open2300-1.11 W/m2
02:11 53.2 °F 42.4 °F 30 in East 9.0 mph 9.0 mph 67 % 0 in open2300-1.11 W/m2
03:10 53.2 °F 43 °F 30 in ESE 1.4 mph 11.1 mph 68 % 0 in open2300-1.11 W/m2
04:11 53.4 °F 43.2 °F 30 in SSE 6.1 mph 7.2 mph 68 % 0 in open2300-1.11 W/m2
05:10 53.4 °F 43.2 °F 30 in ENE 10.8 mph 10.8 mph 68 % 0 in open2300-1.11 W/m2
06:11 53.4 °F 43.2 °F 30 in SSE 7.6 mph 8.7 mph 68 % 0 in open2300-1.11 W/m2
07:10 53.4 °F 43.2 °F 30 in ENE 6.8 mph 12.2 mph 68 % 0 in open2300-1.11 W/m2
08:11 53.6 °F 43.3 °F 30 in Calm   4.0 mph 68 % 0 in open2300-1.11 W/m2
09:10 55.8 °F 45 °F 30 in Calm   9.7 mph 67 % 0 in open2300-1.11 W/m2
10:11 56.5 °F 45.1 °F 30 in SSE 4.7 mph 6.8 mph 66 % 0 in open2300-1.11 W/m2
11:10 58.1 °F 46.2 °F 30 in Calm   5.5 mph 65 % 0 in open2300-1.11 W/m2
12:11 59.7 °F 47.1 °F 30 in ESE 6.4 mph 16.6 mph 63 % 0 in open2300-1.11 W/m2
13:10 59.9 °F 46.9 °F 30 in ESE 13.0 mph 16.9 mph 62 % 0 in open2300-1.11 W/m2
14:11 59.7 °F 47.1 °F 30 in ESE 11.1 mph 11.9 mph 63 % 0 in open2300-1.11 W/m2
15:10 59.7 °F 47.1 °F 30 in ESE 8.2 mph 12.2 mph 63 % 0 in open2300-1.11 W/m2
16:11 58.6 °F 46.9 °F 30 in SE 6.1 mph 6.4 mph 65 % 0 in open2300-1.11 W/m2
17:10 57.7 °F 46.8 °F 30 in ESE 5.8 mph 5.8 mph 67 % 0 in open2300-1.11 W/m2
18:11 57 °F 46 °F 30 in East 7.2 mph 7.2 mph 67 % 0 in open2300-1.11 W/m2
19:10 56.8 °F 46.2 °F 30 in ESE 5.0 mph 5.0 mph 68 % 0 in open2300-1.11 W/m2
20:11 56.8 °F 46 °F 30 in ESE 14.3 mph 15.1 mph 67 % 0 in open2300-1.11 W/m2
21:10 56.8 °F 45.5 °F 30 in SSE 24.5 mph 24.5 mph 66 % 0 in open2300-1.11 W/m2
22:11 57 °F 45.3 °F 30 in South 9.3 mph 9.3 mph 65 % 0 in open2300-1.11 W/m2
23:10 57 °F 45 °F 30 in SE 11.6 mph 11.6 mph 64 % 0 in open2300-1.11 W/m2
Observations météo à CASSIS
WU-History script by Weather Underground - 1 mb